Lincoln, United Kingdom
Current Conditions -  °F | °C
As of 7:50 PM on Friday 28 Nov 2014 (Local Time) from EGXW Reporting Station
Haze Haze  
Wind Chill: 10°   Ceiling: 900
Heat Index: 10°   Visibility: 3mi
Dew Point:   Wind: 8mph
Humidity: 94%   Direction: 60°ENE
Pressure: 29.77"   Gusts: NA
Location:  53.23°N, 0.54°W
Report Text: EGXW 281950Z 06007KT 5000 BR OVC009 10/09 Q1008 GRN
Loading
Personal Weather Stations






























Interactive Weather Map New forecast layout! Learn more

10-Day Weather Forecast

Advertisements
Track Severe Weather on mobile